createdAt,value
2023-01-09T00:01:48.889Z,23.18
2023-01-09T00:04:19.293Z,23.56
2023-01-09T00:06:54.214Z,26.41
2023-01-09T00:09:25.040Z,22.04
2023-01-09T00:11:55.046Z,21.85
2023-01-09T00:14:24.186Z,30.02
2023-01-09T00:16:55.959Z,26.79
2023-01-09T00:19:23.287Z,27.36
2023-01-09T00:21:51.513Z,25.84
2023-01-09T00:24:19.904Z,24.32
2023-01-09T00:26:48.338Z,27.17
2023-01-09T00:29:16.775Z,25.27
2023-01-09T00:31:45.141Z,25.46
2023-01-09T00:34:13.602Z,26.41
2023-01-09T00:36:42.065Z,25.84
2023-01-09T00:39:12.053Z,25.08
2023-01-09T00:41:49.218Z,29.26
2023-01-09T00:44:34.942Z,30.59
2023-01-09T00:47:15.751Z,28.50
2023-01-09T00:49:47.434Z,27.93
2023-01-09T00:52:18.880Z,28.12
2023-01-09T00:54:50.203Z,28.50
2023-01-09T00:57:20.057Z,26.41
2023-01-09T00:59:50.418Z,27.74
2023-01-09T01:02:20.510Z,29.83
2023-01-09T01:05:08.960Z,30.21
2023-01-09T01:07:38.792Z,26.60
2023-01-09T01:10:20.458Z,28.50
2023-01-09T01:12:51.987Z,26.22
2023-01-09T01:15:22.077Z,25.08
2023-01-09T01:17:51.851Z,26.22
2023-01-09T01:20:22.021Z,27.55
2023-01-09T01:22:51.755Z,28.12
2023-01-09T01:25:22.751Z,28.69
2023-01-09T01:27:52.866Z,25.46
2023-01-09T01:30:22.762Z,28.69
2023-01-09T01:32:52.478Z,26.22
2023-01-09T01:35:22.602Z,28.88
2023-01-09T01:37:52.772Z,30.21
2023-01-09T01:40:22.529Z,25.84
2023-01-09T01:42:55.034Z,26.03
2023-01-09T01:45:26.941Z,26.79
2023-01-09T01:48:05.898Z,33.25
2023-01-09T01:51:05.078Z,22.04
2023-01-09T01:53:42.103Z,24.70
2023-01-09T01:56:24.557Z,29.07
2023-01-09T01:59:13.021Z,30.40
2023-01-09T02:01:49.143Z,28.31
2023-01-09T02:04:20.258Z,30.02
2023-01-09T02:06:54.014Z,31.35
2023-01-09T02:09:26.728Z,29.26
2023-01-09T02:11:58.778Z,30.97
2023-01-09T02:14:32.487Z,30.78
2023-01-09T02:17:41.420Z,29.83
2023-01-09T02:20:38.524Z,28.50
2023-01-09T02:23:40.341Z,32.30
2023-01-09T02:26:28.596Z,28.50
2023-01-09T02:29:45.960Z,30.97
2023-01-09T02:32:49.418Z,30.40
2023-01-09T02:35:52.510Z,28.69
2023-01-09T02:39:05.817Z,34.20
2023-01-09T02:41:55.497Z,33.25
2023-01-09T02:44:32.553Z,31.73
2023-01-09T02:47:29.309Z,29.64
2023-01-09T02:50:02.454Z,29.83
2023-01-09T02:53:03.677Z,32.68
2023-01-09T02:55:58.660Z,35.15
2023-01-09T02:59:11.108Z,34.01
2023-01-09T03:02:29.509Z,32.49
2023-01-09T03:05:11.902Z,37.43
2023-01-09T03:07:51.027Z,36.48
2023-01-09T03:11:02.384Z,37.81
2023-01-09T03:13:53.429Z,36.10
2023-01-09T03:16:35.540Z,37.81
2023-01-09T03:19:12.978Z,35.72
2023-01-09T03:21:44.818Z,34.77
2023-01-09T03:24:14.449Z,34.58
2023-01-09T03:26:43.095Z,35.53
2023-01-09T03:29:10.979Z,33.44
2023-01-09T03:31:39.608Z,33.06
2023-01-09T03:34:08.215Z,39.71
2023-01-09T03:36:36.217Z,34.39
2023-01-09T03:39:04.841Z,35.91
2023-01-09T03:41:33.487Z,34.96
2023-01-09T03:44:01.502Z,39.14
2023-01-09T03:46:29.933Z,32.30
2023-01-09T03:48:58.927Z,28.50
2023-01-09T03:51:26.854Z,35.91
2023-01-09T03:53:55.632Z,41.42
2023-01-09T03:56:25.437Z,38.76
2023-01-09T03:58:55.463Z,38.19
2023-01-09T04:01:23.647Z,34.01
2023-01-09T04:03:52.069Z,35.72
2023-01-09T04:06:20.419Z,34.20
2023-01-09T04:08:48.746Z,37.43
2023-01-09T04:11:18.235Z,34.58
2023-01-09T04:13:45.624Z,36.10
2023-01-09T04:16:14.086Z,34.96
2023-01-09T04:18:42.667Z,36.10
2023-01-09T04:21:10.978Z,33.82
2023-01-09T04:23:39.461Z,31.54
2023-01-09T04:26:07.991Z,43.32
2023-01-09T04:28:36.456Z,37.43
2023-01-09T04:31:05.282Z,33.63
2023-01-09T04:33:33.064Z,30.59
2023-01-09T04:36:01.503Z,35.91
2023-01-09T04:38:30.135Z,34.39
2023-01-09T04:40:58.594Z,30.97
2023-01-09T04:43:26.800Z,33.82
2023-01-09T04:45:55.411Z,37.62
2023-01-09T04:48:23.735Z,36.48
2023-01-09T04:50:52.139Z,39.14
2023-01-09T04:53:20.563Z,36.86
2023-01-09T04:55:49.048Z,32.30
2023-01-09T04:58:17.421Z,36.29
2023-01-09T05:00:45.954Z,35.72
2023-01-09T05:03:14.230Z,34.39
2023-01-09T05:05:42.890Z,37.05
2023-01-09T05:08:11.087Z,35.34
2023-01-09T05:10:39.574Z,33.44
2023-01-09T05:13:08.087Z,33.06
2023-01-09T05:15:36.386Z,35.53
2023-01-09T05:18:05.078Z,39.90
2023-01-09T05:20:33.223Z,45.41
2023-01-09T05:23:01.637Z,39.71
2023-01-09T05:25:30.195Z,41.99
2023-01-09T05:27:59.839Z,42.18
2023-01-09T05:30:27.924Z,41.42
2023-01-09T05:32:55.598Z,39.90
2023-01-09T05:35:23.924Z,39.33
2023-01-09T05:37:52.265Z,38.19
2023-01-09T05:40:21.796Z,43.70
2023-01-09T05:42:49.421Z,40.47
2023-01-09T05:45:17.851Z,39.71
2023-01-09T05:47:46.199Z,39.90
2023-01-09T05:50:15.570Z,35.34
2023-01-09T05:52:42.829Z,34.39
2023-01-09T05:55:12.744Z,32.49
2023-01-09T05:57:40.235Z,38.19
2023-01-09T06:00:09.351Z,40.09
2023-01-09T06:02:36.734Z,40.66
2023-01-09T06:05:05.771Z,52.25
2023-01-09T06:07:36.520Z,37.81
2023-01-09T06:10:11.620Z,38.57
2023-01-09T06:12:46.399Z,38.76
2023-01-09T06:15:15.931Z,41.42
2023-01-09T06:17:44.651Z,40.09
2023-01-09T06:20:14.402Z,32.68
2023-01-09T06:22:45.367Z,40.66
2023-01-09T06:25:13.735Z,40.28
2023-01-09T06:27:41.503Z,39.33
2023-01-09T06:30:11.415Z,38.95
2023-01-09T06:32:38.237Z,33.06
2023-01-09T06:35:07.552Z,36.48
2023-01-09T06:37:35.249Z,34.96
2023-01-09T06:40:04.555Z,40.66
2023-01-09T06:42:32.257Z,41.23
2023-01-09T06:45:00.612Z,38.95
2023-01-09T06:47:29.081Z,35.15
2023-01-09T06:49:58.244Z,38.19
2023-01-09T06:52:25.967Z,36.48
2023-01-09T06:54:54.417Z,35.15
2023-01-09T06:57:22.787Z,35.34
2023-01-09T06:59:51.287Z,35.34
2023-01-09T07:02:22.392Z,34.96
2023-01-09T07:04:51.489Z,37.62
2023-01-09T07:07:22.226Z,37.05
2023-01-09T07:09:51.422Z,42.75
2023-01-09T07:12:20.253Z,38.95
2023-01-09T07:14:48.765Z,38.38
2023-01-09T07:17:16.789Z,37.81
2023-01-09T07:19:45.125Z,43.13
2023-01-09T07:22:13.609Z,33.25
2023-01-09T07:24:44.297Z,30.40
2023-01-09T07:27:14.135Z,41.99
2023-01-09T07:29:43.902Z,35.15
2023-01-09T07:32:13.751Z,39.14
2023-01-09T07:34:43.533Z,41.61
2023-01-09T07:37:13.276Z,37.43
2023-01-09T07:39:43.639Z,38.00
2023-01-09T07:42:15.907Z,39.33
2023-01-09T07:44:45.669Z,35.34
2023-01-09T07:47:15.496Z,38.95
2023-01-09T07:49:45.284Z,34.77
2023-01-09T07:52:15.079Z,40.28
2023-01-09T07:54:44.836Z,42.94
2023-01-09T07:57:14.714Z,35.91
2023-01-09T07:59:44.459Z,39.14
2023-01-09T08:02:14.222Z,37.81
2023-01-09T08:04:42.776Z,43.89
2023-01-09T08:07:11.117Z,41.61
2023-01-09T08:09:39.565Z,34.01
2023-01-09T08:12:11.962Z,37.05
2023-01-09T08:14:39.218Z,34.58
2023-01-09T08:17:09.512Z,39.14
2023-01-09T08:19:40.173Z,42.56
2023-01-09T08:22:10.521Z,42.56
2023-01-09T08:24:40.243Z,41.42
2023-01-09T08:27:10.042Z,33.82
2023-01-09T08:29:39.764Z,42.94
2023-01-09T08:32:09.623Z,38.38
2023-01-09T08:34:39.475Z,39.90
2023-01-09T08:37:09.271Z,36.10
2023-01-09T08:39:39.064Z,46.74
2023-01-09T08:42:30.073Z,41.04
2023-01-09T08:45:18.558Z,37.62
2023-01-09T08:47:48.523Z,32.68
2023-01-09T08:50:18.434Z,38.76
2023-01-09T08:52:48.290Z,39.14
2023-01-09T08:55:18.068Z,38.00
2023-01-09T08:57:53.642Z,40.66
2023-01-09T09:00:25.079Z,33.63
2023-01-09T09:02:59.273Z,38.38
2023-01-09T09:05:32.448Z,40.66
2023-01-09T09:08:03.578Z,35.91
2023-01-09T09:10:33.333Z,40.85
2023-01-09T09:13:01.991Z,36.86
2023-01-09T09:15:30.427Z,36.10
2023-01-09T09:18:06.963Z,36.48
2023-01-09T09:20:39.405Z,34.01
2023-01-09T09:23:09.313Z,38.57
2023-01-09T09:25:39.377Z,34.58
2023-01-09T09:28:10.067Z,38.57
2023-01-09T09:30:39.936Z,36.48
2023-01-09T09:33:08.373Z,39.52
2023-01-09T09:35:37.784Z,33.25
2023-01-09T09:38:06.115Z,33.63
2023-01-09T09:41:52.615Z,33.82
2023-01-09T09:44:52.653Z,33.44
2023-01-09T09:47:46.838Z,33.63
2023-01-09T09:50:31.948Z,31.35
2023-01-09T09:53:40.598Z,32.49
2023-01-09T09:56:16.717Z,29.45
2023-01-09T09:58:54.249Z,28.31
2023-01-09T10:02:04.805Z,32.30
2023-01-09T10:04:43.071Z,28.50
2023-01-09T10:07:30.979Z,27.74
2023-01-09T10:10:05.816Z,26.79
2023-01-09T10:12:57.557Z,21.47
2023-01-09T10:15:35.519Z,22.99
2023-01-09T10:18:30.844Z,23.56
2023-01-09T10:21:30.852Z,23.18
2023-01-09T10:24:34.971Z,23.18
2023-01-09T10:27:25.116Z,25.08
2023-01-09T10:30:28.195Z,20.14
2023-01-09T10:33:47.689Z,22.99
2023-01-09T10:37:09.349Z,22.04
2023-01-09T10:40:09.026Z,24.13
2023-01-09T10:42:49.972Z,18.62
2023-01-09T10:45:27.779Z,18.62
2023-01-09T10:48:31.036Z,21.85
2023-01-09T10:50:59.764Z,18.43
2023-01-09T10:53:47.596Z,22.23
2023-01-09T10:56:26.350Z,21.28
2023-01-09T10:58:56.920Z,19.95
2023-01-09T11:01:33.811Z,22.80
2023-01-09T11:04:25.753Z,18.81
2023-01-09T11:07:29.099Z,16.34
2023-01-09T11:10:15.344Z,18.05
2023-01-09T11:12:43.344Z,15.96
2023-01-09T11:15:16.088Z,15.96
2023-01-09T11:17:48.047Z,17.29
2023-01-09T11:20:22.545Z,15.58
2023-01-09T11:22:56.473Z,15.01
2023-01-09T11:25:29.286Z,15.96
2023-01-09T11:28:01.740Z,16.34
2023-01-09T11:30:36.324Z,13.49
2023-01-09T11:33:20.938Z,14.44
2023-01-09T11:36:11.269Z,16.15
2023-01-09T11:38:56.034Z,16.53
2023-01-09T11:41:35.145Z,11.78
2023-01-09T11:44:05.488Z,12.73
2023-01-09T11:46:42.548Z,11.97
2023-01-09T11:49:13.706Z,12.35
2023-01-09T11:51:43.836Z,11.78
2023-01-09T11:54:30.863Z,13.68
2023-01-09T11:57:00.773Z,14.63
2023-01-09T11:59:31.635Z,10.83
2023-01-09T12:02:24.052Z,13.68
2023-01-09T12:05:21.752Z,11.78
2023-01-09T12:08:39.135Z,12.54
2023-01-09T12:11:35.067Z,14.44
2023-01-09T12:15:03.028Z,11.40
2023-01-09T12:18:02.837Z,10.07
2023-01-09T12:20:57.760Z,9.31
2023-01-09T12:23:43.416Z,14.25
2023-01-09T12:26:42.569Z,12.54
2023-01-09T12:30:01.484Z,10.83
2023-01-09T12:32:46.101Z,12.92
2023-01-09T12:35:46.444Z,12.54
2023-01-09T12:38:41.502Z,11.59
2023-01-09T12:41:45.524Z,10.83
2023-01-09T12:44:35.976Z,11.78
2023-01-09T12:47:46.064Z,9.50
2023-01-09T12:50:34.391Z,11.97
2023-01-09T12:53:16.026Z,11.78
2023-01-09T12:56:24.142Z,10.45
2023-01-09T12:59:15.067Z,11.97
2023-01-09T13:01:51.317Z,12.16
2023-01-09T13:04:37.111Z,12.16
2023-01-09T13:07:19.831Z,9.31
2023-01-09T13:10:02.483Z,7.22
2023-01-09T13:12:39.544Z,8.93
2023-01-09T13:15:27.484Z,8.36
2023-01-09T13:18:14.082Z,7.98
2023-01-09T13:20:56.612Z,7.60
2023-01-09T13:24:02.172Z,7.79
2023-01-09T13:26:47.523Z,8.55
2023-01-09T13:29:45.601Z,10.07
2023-01-09T13:32:34.532Z,11.21
2023-01-09T13:35:04.886Z,10.07
2023-01-09T13:37:37.066Z,10.83
2023-01-09T13:40:27.854Z,8.55
2023-01-09T13:43:09.672Z,6.84
2023-01-09T13:45:40.423Z,10.64
2023-01-09T13:48:17.633Z,7.79
2023-01-09T13:50:47.741Z,8.93
2023-01-09T13:53:42.988Z,12.35
2023-01-09T13:56:14.469Z,7.03
2023-01-09T13:59:02.520Z,8.93
2023-01-09T14:01:37.372Z,16.53
2023-01-09T14:04:09.826Z,7.79
2023-01-09T14:06:39.907Z,6.84
2023-01-09T14:09:22.839Z,9.31
2023-01-09T14:12:21.081Z,11.02
2023-01-09T14:14:55.153Z,18.43
2023-01-09T14:17:35.263Z,8.36
2023-01-09T14:20:23.785Z,8.93
2023-01-09T14:23:18.113Z,11.02
2023-01-09T14:25:51.963Z,7.79
2023-01-09T14:28:29.642Z,9.50
2023-01-09T14:30:59.351Z,8.17
2023-01-09T14:33:32.659Z,8.17
2023-01-09T14:36:21.531Z,10.26
2023-01-09T14:39:03.676Z,10.07
2023-01-09T14:42:04.657Z,7.03
2023-01-09T14:44:50.845Z,9.88
2023-01-09T14:47:39.421Z,6.46
2023-01-09T14:50:17.497Z,7.79
2023-01-09T14:53:02.336Z,9.88
2023-01-09T14:55:41.036Z,8.17
2023-01-09T14:58:32.927Z,9.69
2023-01-09T15:01:16.922Z,12.35
2023-01-09T15:03:58.799Z,9.50
2023-01-09T15:06:37.051Z,11.02
2023-01-09T15:09:28.307Z,12.92
2023-01-09T15:12:09.965Z,8.74
2023-01-09T15:14:45.647Z,11.40
2023-01-09T15:17:35.894Z,8.93
2023-01-09T15:20:07.891Z,6.65
2023-01-09T15:22:38.118Z,9.31
2023-01-09T15:25:38.455Z,6.84
2023-01-09T15:28:27.290Z,8.93
2023-01-09T15:31:12.358Z,8.93
2023-01-09T15:33:46.602Z,10.64
2023-01-09T15:36:28.711Z,7.60
2023-01-09T15:39:00.026Z,9.31
2023-01-09T15:41:50.597Z,11.21
2023-01-09T15:44:27.783Z,7.98
2023-01-09T15:47:00.511Z,8.74
2023-01-09T15:49:32.528Z,7.98
2023-01-09T15:52:04.502Z,11.40
2023-01-09T15:54:35.269Z,11.21
2023-01-09T15:57:27.062Z,13.11
2023-01-09T16:00:17.632Z,7.79
2023-01-09T16:03:06.490Z,7.41
2023-01-09T16:05:52.039Z,9.12
2023-01-09T16:08:25.921Z,7.22
2023-01-09T16:11:02.267Z,7.98
2023-01-09T16:13:43.142Z,12.35
2023-01-09T16:16:33.761Z,7.60
2023-01-09T16:19:02.364Z,11.02
2023-01-09T16:21:38.467Z,10.83
2023-01-09T16:24:14.208Z,7.03
2023-01-09T16:26:44.029Z,7.79
2023-01-09T16:29:35.663Z,7.22
2023-01-09T16:32:07.045Z,7.79
2023-01-09T16:34:42.332Z,6.84
2023-01-09T16:37:14.096Z,7.79
2023-01-09T16:40:18.534Z,5.70
2023-01-09T16:43:01.119Z,6.84
2023-01-09T16:45:36.431Z,5.89
2023-01-09T16:48:16.220Z,10.26
2023-01-09T16:50:47.137Z,6.84
2023-01-09T16:53:27.287Z,6.65
2023-01-09T16:55:58.337Z,7.41
2023-01-09T16:58:35.629Z,5.70
2023-01-09T17:01:06.838Z,6.27
2023-01-09T17:03:33.700Z,5.51
2023-01-09T17:06:04.619Z,5.70
2023-01-09T17:08:37.090Z,7.41
2023-01-09T17:11:13.953Z,7.22
2023-01-09T17:13:43.693Z,5.70
2023-01-09T17:16:15.930Z,5.70
2023-01-09T17:18:45.785Z,7.41
2023-01-09T17:21:21.139Z,7.22
2023-01-09T17:24:10.031Z,6.65
2023-01-09T17:27:03.475Z,6.84
2023-01-09T17:29:35.187Z,7.79
2023-01-09T17:32:05.537Z,5.32
2023-01-09T17:34:35.484Z,6.08
2023-01-09T17:37:05.334Z,6.08
2023-01-09T17:39:35.150Z,7.22
2023-01-09T17:42:10.076Z,7.03
2023-01-09T17:45:47.962Z,6.08
2023-01-09T17:48:22.007Z,5.70
2023-01-09T17:50:49.655Z,6.27
2023-01-09T17:53:19.842Z,7.22
2023-01-09T17:55:49.276Z,6.46
2023-01-09T17:58:30.315Z,6.84
2023-01-09T18:01:00.229Z,6.46
2023-01-09T18:03:33.389Z,7.41
2023-01-09T18:06:03.385Z,6.27
2023-01-09T18:08:32.570Z,8.36
2023-01-09T18:11:04.971Z,6.65
2023-01-09T18:13:34.344Z,7.22
2023-01-09T18:16:09.290Z,6.84
2023-01-09T18:18:40.160Z,8.36
2023-01-09T18:21:09.474Z,7.60
2023-01-09T18:23:39.204Z,7.03
2023-01-09T18:26:11.358Z,7.22
2023-01-09T18:28:41.053Z,8.74
2023-01-09T18:31:11.315Z,6.84
2023-01-09T18:33:41.470Z,8.17
2023-01-09T18:36:11.552Z,7.03
2023-01-09T18:38:42.697Z,6.08
2023-01-09T18:41:12.372Z,8.17
2023-01-09T18:43:42.180Z,7.41
2023-01-09T18:46:11.997Z,7.03
2023-01-09T18:48:41.880Z,7.22
2023-01-09T18:51:11.614Z,8.55
2023-01-09T18:53:41.311Z,8.17
2023-01-09T18:56:11.058Z,6.08
2023-01-09T18:58:40.907Z,7.79
2023-01-09T19:14:25.731Z,5.32
2023-01-09T19:16:59.083Z,8.36
2023-01-09T19:19:30.272Z,5.51
2023-01-09T19:22:00.094Z,6.08
2023-01-09T19:24:32.104Z,6.46
2023-01-09T19:27:01.877Z,6.65
2023-01-09T19:29:32.017Z,7.60
2023-01-09T19:32:01.981Z,7.03
2023-01-09T19:34:31.902Z,6.84
2023-01-09T19:37:01.803Z,8.17
2023-01-09T19:39:32.341Z,7.79
2023-01-09T19:42:02.119Z,6.27
2023-01-09T19:44:32.695Z,6.46
2023-01-09T19:47:02.563Z,5.89
2023-01-09T19:49:33.098Z,7.22
2023-01-09T19:52:03.243Z,8.55
2023-01-09T19:54:33.042Z,8.36
2023-01-09T19:57:03.079Z,6.27
2023-01-09T19:59:35.098Z,6.84
2023-01-09T20:02:05.865Z,6.46
2023-01-09T20:04:35.650Z,6.08
2023-01-09T20:07:06.033Z,6.84
2023-01-09T20:09:35.744Z,7.41
2023-01-09T20:12:09.107Z,6.84
2023-01-09T20:14:39.119Z,6.46
2023-01-09T20:17:09.052Z,11.40
2023-01-09T20:19:39.453Z,5.89
2023-01-09T20:22:09.269Z,11.97
2023-01-09T20:24:37.081Z,6.46
2023-01-09T20:27:07.378Z,7.98
2023-01-09T20:29:36.929Z,7.79
2023-01-09T20:32:06.251Z,6.27
2023-01-09T20:34:36.336Z,8.17
2023-01-09T20:37:06.261Z,10.26
2023-01-09T20:39:36.341Z,8.36
2023-01-09T20:42:11.874Z,7.60
2023-01-09T20:44:42.024Z,6.27
2023-01-09T20:47:12.660Z,8.55
2023-01-09T20:49:42.377Z,8.55
2023-01-09T20:52:12.080Z,6.08
2023-01-09T20:54:42.724Z,6.08
2023-01-09T20:57:12.623Z,5.32
2023-01-09T20:59:42.407Z,6.27
2023-01-09T21:02:15.261Z,6.46
2023-01-09T21:04:45.051Z,9.12
2023-01-09T21:07:16.024Z,6.84
2023-01-09T21:09:46.749Z,5.51
2023-01-09T21:12:27.655Z,5.51
2023-01-09T21:15:02.136Z,7.03
2023-01-09T21:17:40.878Z,6.27
2023-01-09T21:20:14.983Z,5.70
2023-01-09T21:22:44.879Z,7.41
2023-01-09T21:25:16.615Z,6.27
2023-01-09T21:27:48.689Z,6.84
2023-01-09T21:30:18.851Z,5.70
2023-01-09T21:32:48.635Z,6.65
2023-01-09T21:35:18.545Z,7.03
2023-01-09T21:37:48.373Z,7.03
2023-01-09T21:40:18.223Z,11.02
2023-01-09T21:43:06.854Z,5.89
2023-01-09T21:45:57.466Z,7.79
2023-01-09T21:48:26.932Z,9.12
2023-01-09T21:50:56.735Z,6.27
2023-01-09T21:53:26.525Z,7.79
2023-01-09T21:55:56.471Z,7.79
2023-01-09T21:58:26.264Z,7.03
2023-01-09T22:01:00.705Z,7.22
2023-01-09T22:03:30.601Z,6.84
2023-01-09T22:06:04.612Z,7.98
2023-01-09T22:08:36.688Z,6.08
2023-01-09T22:11:05.806Z,6.65
2023-01-09T22:13:34.285Z,6.46
2023-01-09T22:16:05.508Z,7.03
2023-01-09T22:18:36.150Z,7.98
2023-01-09T22:21:06.279Z,8.17
2023-01-09T22:23:36.325Z,8.36
2023-01-09T22:26:12.105Z,6.08
2023-01-09T22:28:43.139Z,6.46
2023-01-09T22:31:22.568Z,6.46
2023-01-09T22:33:54.105Z,6.27
2023-01-09T22:36:26.501Z,6.27
2023-01-09T22:38:59.216Z,7.60
2023-01-09T22:41:30.590Z,6.65
2023-01-09T22:44:00.400Z,6.65
2023-01-09T22:46:28.881Z,7.79
2023-01-09T22:48:57.745Z,8.74
2023-01-09T22:51:25.785Z,6.84
2023-01-09T22:53:54.128Z,5.89
2023-01-09T22:56:22.566Z,6.84
2023-01-09T22:58:54.031Z,7.41
2023-01-09T23:01:24.500Z,6.46
2023-01-09T23:03:54.195Z,7.79
2023-01-09T23:06:23.585Z,7.22
2023-01-09T23:08:53.014Z,5.89
2023-01-09T23:11:49.882Z,6.84
2023-01-09T23:14:21.818Z,6.46
2023-01-09T23:16:51.738Z,7.03
2023-01-09T23:19:22.063Z,7.41
2023-01-09T23:26:04.835Z,10.07
2023-01-09T23:28:34.623Z,6.46
2023-01-09T23:31:05.265Z,9.12
2023-01-09T23:33:32.740Z,6.84
2023-01-09T23:36:01.179Z,7.22
2023-01-09T23:38:29.658Z,9.31
2023-01-09T23:40:58.167Z,7.41
2023-01-09T23:43:26.470Z,7.60
2023-01-09T23:45:54.903Z,10.07
2023-01-09T23:48:23.247Z,7.41
2023-01-09T23:50:54.385Z,7.22
2023-01-09T23:53:23.486Z,10.07
2023-01-09T23:55:55.369Z,7.22
2023-01-09T23:58:26.530Z,8.93
